Time;durP1;ratioP1;P1;durP2;ratioP2;P2;SDS_P1;SDS_P2;PMS_P1;PMS_P2;Temp;Humidity;BMP_temperature;BMP_pressure;BME280_temperature;BME280_humidity;BME280_pressure;Samples;Min_cycle;Max_cycle;Signal;HPM_P1;HPM_P2
2021/04/28 00:01:42;;;;;;;5.38;2.72;;;;;;;7.54;55.33;100069.59;5183477;28;20496;-80
2021/04/28 00:04:12;;;;;;;10.98;3.00;;;;;;;7.54;56.18;100064.41;5184807;28;20038;-79
2021/04/28 00:06:45;;;;;;;6.00;2.70;;;;;;;7.46;56.38;100060.34;5184612;28;20026;-79
2021/04/28 00:09:16;;;;;;;7.57;2.80;;;;;;;7.49;55.88;100053.31;5184858;28;20029;-79
2021/04/28 00:11:46;;;;;;;8.45;2.75;;;;;;;7.58;55.24;100050.44;5185348;28;20025;-79
2021/04/28 00:14:16;;;;;;;8.00;3.20;;;;;;;7.64;55.07;100049.38;5184661;28;20033;-79
2021/04/28 00:16:47;;;;;;;7.15;2.85;;;;;;;7.77;54.30;100042.88;5182939;28;20467;-80
2021/04/28 00:19:17;;;;;;;5.63;2.70;;;;;;;7.81;54.41;100047.94;5182965;28;20041;-79
2021/04/28 00:21:47;;;;;;;8.90;2.80;;;;;;;7.84;54.34;100050.41;5185137;28;20036;-79
2021/04/28 00:24:18;;;;;;;7.30;2.83;;;;;;;7.81;54.63;100040.13;5184381;28;20038;-79
2021/04/28 00:26:48;;;;;;;4.70;2.63;;;;;;;7.84;53.84;100039.19;5184163;28;20084;-79
2021/04/28 00:29:19;;;;;;;8.52;2.83;;;;;;;7.71;54.52;100025.72;5183138;28;20423;-79
2021/04/28 00:31:50;;;;;;;5.53;2.70;;;;;;;7.74;54.66;100025.59;5184142;28;20022;-79
2021/04/28 00:34:21;;;;;;;5.45;2.67;;;;;;;7.66;54.91;100030.22;5185041;28;20036;-79
2021/04/28 00:36:51;;;;;;;7.10;2.85;;;;;;;7.70;54.33;100026.63;5179350;28;20027;-80
2021/04/28 00:39:21;;;;;;;5.65;2.53;;;;;;;7.49;57.50;100024.72;5174503;28;20026;-79
2021/04/28 00:41:52;;;;;;;5.32;2.92;;;;;;;7.14;58.09;100033.66;5181453;28;20044;-80
2021/04/28 00:44:22;;;;;;;7.50;2.92;;;;;;;6.86;59.24;100024.97;5168270;28;20022;-79
2021/04/28 00:46:53;;;;;;;6.65;3.08;;;;;;;7.00;59.66;100026.28;5179455;28;20091;-78
2021/04/28 00:49:23;;;;;;;8.13;2.80;;;;;;;7.09;59.03;100025.16;5183347;28;20546;-79
2021/04/28 00:51:53;;;;;;;5.22;2.60;;;;;;;6.98;59.05;100025.50;5173339;28;20037;-78
2021/04/28 00:54:24;;;;;;;8.32;2.97;;;;;;;7.00;58.84;100015.03;5179177;28;20045;-79
2021/04/28 00:56:56;;;;;;;6.07;2.90;;;;;;;6.78;59.29;100011.38;5185011;28;20028;-79
2021/04/28 00:59:27;;;;;;;6.57;2.80;;;;;;;6.70;59.17;100011.59;5184763;28;20042;-79
2021/04/28 01:01:57;;;;;;;5.25;2.80;;;;;;;6.64;59.39;100010.94;5185987;28;20060;-79
2021/04/28 01:04:28;;;;;;;5.28;3.03;;;;;;;6.48;60.42;100007.06;5176027;28;20591;-80
2021/04/28 01:07:02;;;;;;;8.00;2.75;;;;;;;6.53;60.10;100006.03;5178809;28;20096;-81
2021/04/28 01:09:38;;;;;;;7.30;3.05;;;;;;;6.54;59.92;100001.69;5185857;28;20025;-80
2021/04/28 01:12:10;;;;;;;6.63;2.92;;;;;;;6.40;60.67;100006.44;5188381;28;20040;-80
2021/04/28 01:14:42;;;;;;;7.25;3.20;;;;;;;6.52;60.25;99998.28;5182024;28;20026;-80
2021/04/28 01:17:13;;;;;;;7.95;3.08;;;;;;;6.32;60.77;100005.78;5172950;28;20092;-81
2021/04/28 01:19:43;;;;;;;7.10;3.10;;;;;;;6.30;61.22;99997.19;5181542;28;20259;-81
2021/04/28 01:22:14;;;;;;;6.03;3.28;;;;;;;6.29;60.63;100003.28;5177317;28;20030;-79
2021/04/28 01:24:45;;;;;;;6.65;3.00;;;;;;;6.38;60.73;99992.63;5183348;28;20116;-79
2021/04/28 01:27:23;;;;;;;6.00;3.10;;;;;;;6.25;61.25;99994.72;5185814;28;20113;-80
2021/04/28 01:29:54;;;;;;;6.70;2.97;;;;;;;6.29;61.06;99990.31;5186514;28;20156;-79
2021/04/28 01:32:24;;;;;;;6.18;3.20;;;;;;;6.30;61.10;99994.59;5186273;28;20064;-79
2021/04/28 01:34:55;;;;;;;8.23;3.25;;;;;;;6.18;61.23;99990.59;5175367;28;20049;-79
2021/04/28 01:37:27;;;;;;;5.95;3.10;;;;;;;6.17;61.31;99988.91;5181439;28;20045;-80
2021/04/28 01:39:58;;;;;;;6.43;2.97;;;;;;;6.01;62.00;99989.34;5183122;28;20025;-80
2021/04/28 01:42:30;;;;;;;9.68;3.35;;;;;;;5.98;62.27;99986.84;5188106;28;20026;-80
2021/04/28 01:45:01;;;;;;;7.10;3.17;;;;;;;6.17;61.82;99982.84;5188554;28;20050;-79
2021/04/28 01:47:32;;;;;;;7.72;3.13;;;;;;;6.08;61.85;99970.16;5183276;28;20036;-81
2021/04/28 01:50:03;;;;;;;6.35;3.28;;;;;;;6.10;62.02;99978.75;5195099;28;20052;-78
2021/04/28 01:52:35;;;;;;;9.45;3.47;;;;;;;5.90;62.21;99968.88;5195725;28;20085;-81
2021/04/28 01:55:06;;;;;;;8.48;3.25;;;;;;;5.85;62.48;99978.53;5188551;28;20034;-80
2021/04/28 01:57:38;;;;;;;8.43;3.20;;;;;;;5.83;62.32;99971.69;5184140;28;20033;-80
2021/04/28 02:00:11;;;;;;;6.57;3.20;;;;;;;5.86;62.00;99971.59;5195666;28;20026;-80
2021/04/28 02:02:41;;;;;;;10.63;2.95;;;;;;;5.82;62.38;99972.56;5195530;28;20157;-81
2021/04/28 02:05:12;;;;;;;10.85;3.20;;;;;;;5.52;62.77;99968.13;5195025;28;20124;-80
2021/04/28 02:07:45;;;;;;;5.95;2.90;;;;;;;5.62;62.91;99961.84;5180955;28;20030;-78
2021/04/28 02:10:15;;;;;;;5.55;3.00;;;;;;;5.49;63.44;99965.63;5186584;28;20117;-81
2021/04/28 02:12:47;;;;;;;11.75;3.47;;;;;;;5.38;63.57;99963.31;5188713;28;20022;-81
2021/04/28 02:15:20;;;;;;;7.85;3.47;;;;;;;5.51;63.10;99961.25;5184343;28;20636;-79
2021/04/28 02:17:53;;;;;;;5.72;3.17;;;;;;;5.58;62.84;99950.69;5178114;28;20026;-79
2021/04/28 02:20:24;;;;;;;6.45;3.35;;;;;;;5.57;62.98;99953.34;5186515;28;20060;-79
2021/04/28 02:22:55;;;;;;;9.15;3.55;;;;;;;5.47;63.23;99947.53;5190156;28;20392;-79
2021/04/28 02:25:26;;;;;;;8.50;3.75;;;;;;;5.30;63.89;99946.25;5191119;28;20116;-79
2021/04/28 02:27:56;;;;;;;7.72;3.08;;;;;;;5.28;63.90;99955.78;5192869;28;20064;-81
2021/04/28 02:30:32;;;;;;;8.18;3.38;;;;;;;5.24;64.09;99941.22;5183549;28;20112;-80
2021/04/28 02:33:03;;;;;;;8.82;3.58;;;;;;;5.23;64.16;99939.53;5185652;28;20029;-79
2021/04/28 02:35:33;;;;;;;6.53;3.30;;;;;;;5.30;64.56;99948.84;5191175;28;20021;-80
2021/04/28 02:38:06;;;;;;;6.82;3.35;;;;;;;5.08;65.22;99949.38;5182874;28;20051;-80
2021/04/28 02:40:38;;;;;;;7.28;3.15;;;;;;;5.25;64.76;99947.25;5182395;28;20025;-79
2021/04/28 02:43:11;;;;;;;7.63;3.40;;;;;;;5.28;64.62;99936.78;5188964;28;20058;-78
2021/04/28 02:45:43;;;;;;;7.82;3.20;;;;;;;5.35;64.09;99940.97;5177323;28;20036;-78
2021/04/28 02:48:16;;;;;;;7.07;3.22;;;;;;;5.15;64.88;99936.25;5177731;28;20030;-81
2021/04/28 02:50:50;;;;;;;7.50;3.10;;;;;;;5.38;64.95;99935.69;5188653;28;20026;-79
2021/04/28 02:53:23;;;;;;;6.95;3.45;;;;;;;4.73;67.48;99932.09;5188034;28;20018;-82
2021/04/28 02:55:57;;;;;;;7.45;3.33;;;;;;;5.01;66.87;99933.13;5187735;28;20026;-78
2021/04/28 02:58:29;;;;;;;6.87;3.20;;;;;;;4.95;66.84;99933.28;5196998;28;20036;-81
2021/04/28 03:01:02;;;;;;;7.35;3.70;;;;;;;4.71;68.04;99935.59;5198096;28;20030;-80
2021/04/28 03:03:39;;;;;;;7.55;3.47;;;;;;;4.43;67.91;99930.16;5198754;28;20060;-79
2021/04/28 03:06:10;;;;;;;7.47;3.33;;;;;;;4.58;68.00;99928.97;5191654;28;20081;-79
2021/04/28 03:08:41;;;;;;;5.68;3.03;;;;;;;4.39;68.65;99931.13;5187014;28;20025;-81
2021/04/28 03:11:13;;;;;;;7.45;3.47;;;;;;;4.41;68.94;99924.19;5194618;28;20034;-79
2021/04/28 03:13:43;;;;;;;7.85;3.50;;;;;;;4.48;67.76;99919.72;5193943;28;20124;-80
2021/04/28 03:16:14;;;;;;;9.07;4.40;;;;;;;4.42;67.93;99925.88;5182006;28;20719;-79
2021/04/28 03:18:45;;;;;;;7.75;3.55;;;;;;;4.41;67.94;99923.31;5199451;23;20046;-76
2021/04/28 03:21:18;;;;;;;6.28;3.30;;;;;;;4.51;67.82;99911.91;5165760;28;20076;-75
2021/04/28 03:23:48;;;;;;;7.22;3.45;;;;;;;4.46;67.76;99922.34;5171229;28;20038;-75
2021/04/28 03:26:18;;;;;;;11.90;4.03;;;;;;;4.39;67.82;99917.31;5171667;28;20146;-77
2021/04/28 03:28:49;;;;;;;8.63;3.58;;;;;;;4.32;67.56;99918.34;5174759;28;20386;-76
2021/04/28 03:31:20;;;;;;;7.70;3.80;;;;;;;4.31;67.99;99912.31;5174915;28;20040;-75
2021/04/28 03:33:50;;;;;;;6.35;3.70;;;;;;;4.09;68.87;99926.56;5171645;28;20026;-75
2021/04/28 03:36:21;;;;;;;7.43;3.80;;;;;;;4.20;68.58;99922.03;5171226;28;20029;-75
2021/04/28 03:38:51;;;;;;;7.75;3.70;;;;;;;4.22;68.73;99920.28;5174577;28;20034;-76
2021/04/28 03:41:23;;;;;;;7.63;3.53;;;;;;;4.35;68.47;99916.56;5174222;28;20034;-76
2021/04/28 03:43:54;;;;;;;6.80;3.20;;;;;;;4.31;68.27;99922.66;5174743;28;20108;-76
2021/04/28 03:46:24;;;;;;;10.05;3.65;;;;;;;4.30;68.88;99918.38;5169023;28;20624;-76
2021/04/28 03:48:54;;;;;;;8.93;3.55;;;;;;;4.39;68.56;99920.78;5165997;28;20122;-76
2021/04/28 03:51:24;;;;;;;8.20;3.60;;;;;;;4.29;69.09;99919.25;5171736;28;20030;-76
2021/04/28 03:53:55;;;;;;;12.70;3.70;;;;;;;4.30;69.09;99920.94;5174852;28;20037;-76
2021/04/28 03:56:26;;;;;;;5.90;3.35;;;;;;;4.41;67.91;99929.34;5168014;28;20022;-76
2021/04/28 03:58:56;;;;;;;7.40;3.45;;;;;;;4.37;68.26;99926.84;5171901;28;20037;-76
2021/04/28 04:01:27;;;;;;;7.28;3.80;;;;;;;4.09;68.75;99918.81;5161140;28;20022;-76
2021/04/28 04:03:57;;;;;;;9.40;3.80;;;;;;;4.14;69.16;99919.56;5164280;28;20062;-76
2021/04/28 04:06:27;;;;;;;11.30;3.92;;;;;;;4.20;68.55;99914.28;5169421;28;20026;-76
2021/04/28 04:08:58;;;;;;;7.18;3.63;;;;;;;4.21;68.33;99916.00;5172742;28;20034;-76
2021/04/28 04:11:29;;;;;;;7.20;3.65;;;;;;;4.17;68.98;99913.50;5174521;28;20029;-76
2021/04/28 04:13:59;;;;;;;7.93;3.70;;;;;;;4.29;68.40;99919.25;5172409;28;20019;-76
2021/04/28 04:16:30;;;;;;;7.25;3.50;;;;;;;4.45;67.88;99912.03;5152083;28;20080;-76
2021/04/28 04:19:00;;;;;;;9.38;3.60;;;;;;;4.31;68.38;99916.66;5165446;28;20034;-76
2021/04/28 04:21:30;;;;;;;8.52;3.50;;;;;;;4.43;68.29;99917.22;5171066;28;20025;-75
2021/04/28 04:24:00;;;;;;;7.50;3.67;;;;;;;4.49;68.35;99911.91;5164833;28;20030;-76
2021/04/28 04:26:31;;;;;;;6.90;3.10;;;;;;;4.67;68.13;99910.66;5172379;28;20026;-75
2021/04/28 04:29:03;;;;;;;10.57;3.67;;;;;;;4.90;67.15;99914.44;5171840;28;20101;-76
2021/04/28 04:31:33;;;;;;;6.97;3.33;;;;;;;4.91;67.75;99910.97;5171688;28;20038;-76
2021/04/28 04:34:04;;;;;;;9.00;3.88;;;;;;;4.85;67.07;99916.28;5163237;28;20442;-76
2021/04/28 04:36:34;;;;;;;7.20;3.63;;;;;;;5.07;66.70;99914.88;5170387;28;20534;-76
2021/04/28 04:39:05;;;;;;;11.00;3.80;;;;;;;5.32;65.96;99917.72;5165080;28;20069;-76
2021/04/28 04:41:36;;;;;;;9.57;3.53;;;;;;;5.43;65.54;99916.56;5165204;28;20034;-76
2021/04/28 04:44:06;;;;;;;8.05;3.60;;;;;;;5.68;65.51;99922.78;5164686;28;20089;-76
2021/04/28 04:46:37;;;;;;;8.90;3.60;;;;;;;5.65;65.15;99915.97;5166536;28;20023;-76
2021/04/28 04:49:07;;;;;;;7.13;3.38;;;;;;;5.69;65.19;99914.13;5162940;28;20034;-76
2021/04/28 04:51:37;;;;;;;7.85;3.47;;;;;;;5.90;63.87;99918.78;5171117;28;20438;-76
2021/04/28 04:54:08;;;;;;;9.68;3.55;;;;;;;6.20;63.59;99921.38;5171537;28;20061;-77
2021/04/28 04:56:38;;;;;;;5.55;2.97;;;;;;;7.31;60.73;99912.69;5174223;28;20045;-77
2021/04/28 04:59:08;;;;;;;6.90;3.13;;;;;;;8.11;58.63;99905.53;5170317;28;20148;-77
2021/04/28 05:01:39;;;;;;;9.70;3.40;;;;;;;10.55;53.92;99903.13;5165616;28;20053;-77
2021/04/28 05:04:10;;;;;;;7.40;3.40;;;;;;;10.24;52.57;99903.69;5172040;28;20053;-77
2021/04/28 05:06:40;;;;;;;5.82;3.20;;;;;;;12.70;48.98;99891.16;5170436;28;20022;-77
2021/04/28 05:09:10;;;;;;;8.23;3.40;;;;;;;13.36;46.22;99893.50;5166717;28;20030;-77
2021/04/28 05:11:40;;;;;;;5.40;2.92;;;;;;;14.57;45.55;99890.50;5173329;28;20502;-78
2021/04/28 05:14:11;;;;;;;6.47;3.70;;;;;;;14.56;44.53;99891.44;5169773;28;20073;-77
2021/04/28 05:16:41;;;;;;;7.05;3.10;;;;;;;15.71;42.99;99879.38;5167529;28;20285;-78
2021/04/28 05:19:11;;;;;;;6.38;3.05;;;;;;;15.64;42.78;99880.72;5171698;28;20029;-78
2021/04/28 05:21:42;;;;;;;6.63;2.95;;;;;;;14.99;42.25;99883.34;5172371;28;20061;-78
2021/04/28 05:24:12;;;;;;;6.57;2.83;;;;;;;13.82;45.28;99892.50;5173089;28;20037;-78
2021/04/28 05:26:43;;;;;;;7.15;3.30;;;;;;;13.80;46.17;99889.13;5167670;28;20040;-78
2021/04/28 05:29:13;;;;;;;5.78;3.30;;;;;;;14.18;46.05;99885.06;5162842;28;20034;-77
2021/04/28 05:31:43;;;;;;;6.47;3.07;;;;;;;16.50;42.67;99877.38;5168029;28;20077;-78
2021/04/28 05:34:13;;;;;;;7.85;3.40;;;;;;;14.56;44.72;99878.28;5167859;28;20300;-78
2021/04/28 05:36:44;;;;;;;7.18;3.30;;;;;;;13.77;45.80;99878.81;5169111;28;20034;-78
2021/04/28 05:39:14;;;;;;;7.45;3.03;;;;;;;14.97;45.93;99878.19;5164510;28;20030;-78
2021/04/28 05:41:45;;;;;;;6.83;3.50;;;;;;;18.37;39.91;99871.09;5170713;28;20041;-78
2021/04/28 05:44:16;;;;;;;6.20;3.10;;;;;;;18.48;39.15;99871.94;5171130;28;20293;-77
2021/04/28 05:46:46;;;;;;;5.93;3.33;;;;;;;18.70;38.13;99865.78;5169533;28;20114;-78
2021/04/28 05:49:17;;;;;;;5.75;2.92;;;;;;;17.69;42.07;99867.59;5164238;28;20038;-78
2021/04/28 05:51:47;;;;;;;7.75;3.00;;;;;;;18.91;38.64;99868.38;5171696;28;20044;-78
2021/04/28 05:54:17;;;;;;;6.90;2.97;;;;;;;19.79;38.70;99859.28;5170212;28;20403;-79
2021/04/28 05:56:48;;;;;;;7.55;3.50;;;;;;;17.87;39.48;99867.06;5170662;28;20162;-78
2021/04/28 05:59:19;;;;;;;6.00;3.15;;;;;;;15.54;43.55;99869.13;5174189;28;20060;-78
2021/04/28 06:01:49;;;;;;;5.38;3.25;;;;;;;14.01;45.22;99882.56;5171221;28;20029;-78
2021/04/28 06:04:19;;;;;;;6.45;3.40;;;;;;;10.90;51.04;99884.91;5171346;28;20069;-78
2021/04/28 06:06:50;;;;;;;7.50;3.67;;;;;;;10.42;54.79;99888.94;5173716;28;20040;-77
2021/04/28 06:09:20;;;;;;;6.97;3.75;;;;;;;9.78;55.36;99885.72;5171754;28;20435;-78
2021/04/28 06:11:50;;;;;;;7.35;3.60;;;;;;;9.81;57.42;99888.19;5172717;28;20033;-78
2021/04/28 06:14:21;;;;;;;6.65;3.40;;;;;;;9.84;56.32;99884.59;5169248;28;20041;-77
2021/04/28 06:16:51;;;;;;;8.95;3.60;;;;;;;9.94;56.65;99889.34;5166810;28;20037;-77
2021/04/28 06:19:21;;;;;;;7.07;3.65;;;;;;;11.24;53.41;99872.69;5164469;28;20022;-78
2021/04/28 06:21:52;;;;;;;6.80;3.15;;;;;;;13.99;47.18;99866.91;5171874;28;20033;-78
2021/04/28 06:24:22;;;;;;;7.60;3.50;;;;;;;14.58;46.02;99863.25;5174105;28;20080;-78
2021/04/28 06:26:52;;;;;;;7.63;3.80;;;;;;;16.31;43.46;99861.97;5169867;28;20812;-78
2021/04/28 06:29:22;;;;;;;7.28;3.65;;;;;;;16.73;42.35;99853.69;5162527;28;20276;-79
2021/04/28 06:31:53;;;;;;;9.25;3.63;;;;;;;14.52;46.31;99861.84;5173929;28;20084;-79
2021/04/28 06:34:23;;;;;;;6.72;3.50;;;;;;;15.76;45.99;99858.84;5168311;28;20057;-79
2021/04/28 06:36:53;;;;;;;8.03;3.57;;;;;;;17.53;42.74;99851.22;5172251;28;20595;-79
2021/04/28 06:39:24;;;;;;;8.63;3.53;;;;;;;16.93;42.61;99855.72;5172457;28;20295;-79
2021/04/28 06:41:54;;;;;;;6.45;4.00;;;;;;;15.53;45.52;99854.25;5168264;28;20025;-79
2021/04/28 06:44:24;;;;;;;9.52;3.70;;;;;;;17.64;41.86;99846.81;5166545;28;20073;-79
2021/04/28 06:46:55;;;;;;;7.53;4.13;;;;;;;17.49;42.04;99853.25;5170327;28;20045;-79
2021/04/28 06:49:25;;;;;;;8.50;4.05;;;;;;;17.55;42.68;99850.16;5162164;28;20034;-79
2021/04/28 06:51:55;;;;;;;9.93;4.22;;;;;;;17.25;42.65;99840.97;5164359;28;20089;-78
2021/04/28 06:54:26;;;;;;;9.30;4.20;;;;;;;16.29;42.78;99836.66;5169295;28;20029;-78
2021/04/28 06:56:56;;;;;;;6.78;4.28;;;;;;;16.47;43.96;99840.66;5169841;28;20030;-78
2021/04/28 06:59:26;;;;;;;6.63;4.10;;;;;;;16.77;42.68;99839.34;5171977;28;20520;-78
2021/04/28 07:01:57;;;;;;;8.32;4.22;;;;;;;17.28;42.83;99841.59;5169037;28;20657;-78
2021/04/28 07:04:27;;;;;;;8.35;3.90;;;;;;;17.96;42.84;99836.41;5173490;28;20041;-78
2021/04/28 07:06:59;;;;;;;10.57;4.25;;;;;;;18.59;42.22;99836.66;5165856;28;20026;-78
2021/04/28 07:09:29;;;;;;;7.75;4.05;;;;;;;18.47;41.39;99837.63;5167103;28;20029;-78
2021/04/28 07:12:00;;;;;;;10.02;4.20;;;;;;;17.58;42.40;99831.41;5170649;28;20037;-78
2021/04/28 07:14:30;;;;;;;10.70;4.68;;;;;;;17.63;42.18;99831.91;5172885;28;20072;-78
2021/04/28 07:17:00;;;;;;;8.67;4.43;;;;;;;16.99;42.72;99829.72;5167525;28;20114;-78
2021/04/28 07:19:30;;;;;;;8.40;4.43;;;;;;;17.30;41.71;99826.50;5163706;28;20790;-78
2021/04/28 07:22:01;;;;;;;7.60;4.63;;;;;;;18.06;42.86;99826.81;5169910;28;20056;-78
2021/04/28 07:24:31;;;;;;;7.95;4.80;;;;;;;18.22;42.09;99822.00;5174186;28;20022;-78
2021/04/28 07:27:02;;;;;;;8.47;4.57;;;;;;;18.58;42.85;99816.47;5170101;28;20035;-78
2021/04/28 07:29:32;;;;;;;10.65;4.65;;;;;;;18.91;41.66;99823.34;5172471;28;20284;-78
2021/04/28 07:32:03;;;;;;;7.83;4.80;;;;;;;19.03;41.39;99826.81;5168922;28;20030;-77
2021/04/28 07:34:33;;;;;;;8.00;4.95;;;;;;;18.91;41.78;99820.72;5166667;28;20288;-78
2021/04/28 07:37:04;;;;;;;7.65;4.80;;;;;;;19.29;40.58;99815.78;5170767;28;20667;-78
2021/04/28 07:39:35;;;;;;;9.27;4.88;;;;;;;19.62;40.65;99818.25;5171513;28;20513;-78
2021/04/28 07:42:06;;;;;;;13.10;5.18;;;;;;;19.78;41.40;99818.63;5174499;28;20393;-78
2021/04/28 07:44:36;;;;;;;10.30;4.95;;;;;;;19.89;40.09;99815.06;5171205;28;20026;-78
2021/04/28 07:47:06;;;;;;;8.45;4.65;;;;;;;19.20;41.97;99821.84;5169744;28;20034;-78
2021/04/28 07:49:37;;;;;;;7.60;4.05;;;;;;;20.16;41.23;99810.91;5163349;28;20084;-78
2021/04/28 07:52:07;;;;;;;10.25;4.30;;;;;;;21.40;40.22;99812.03;5175432;28;20034;-78
2021/04/28 07:54:37;;;;;;;10.10;4.93;;;;;;;21.92;38.16;99807.06;5168439;28;20460;-78
2021/04/28 07:57:08;;;;;;;7.43;4.90;;;;;;;21.79;38.29;99811.03;5170414;28;20288;-78
2021/04/28 07:59:38;;;;;;;9.02;4.45;;;;;;;20.67;40.24;99814.28;5175155;28;20045;-79
2021/04/28 08:02:08;;;;;;;12.47;5.10;;;;;;;20.86;39.27;99807.25;5176111;28;20065;-78
2021/04/28 08:04:39;;;;;;;9.83;4.93;;;;;;;20.89;39.35;99806.13;5172181;28;20293;-78
2021/04/28 08:07:10;;;;;;;9.30;5.47;;;;;;;21.12;39.15;99807.53;5175030;28;20311;-78
2021/04/28 08:09:41;;;;;;;10.80;5.20;;;;;;;20.83;38.93;99809.28;5172967;28;20026;-78
2021/04/28 08:12:12;;;;;;;10.00;5.30;;;;;;;20.78;39.27;99801.75;5173990;28;20472;-78
2021/04/28 08:14:42;;;;;;;7.93;5.35;;;;;;;22.16;37.39;99795.91;5166093;28;20022;-78
2021/04/28 08:17:13;;;;;;;10.17;5.43;;;;;;;20.86;39.89;99807.25;5167013;28;20463;-78
2021/04/28 08:19:43;;;;;;;8.68;5.25;;;;;;;21.52;40.04;99810.88;5162881;28;20277;-78
2021/04/28 08:22:13;;;;;;;8.60;5.87;;;;;;;20.54;40.03;99807.56;5171253;28;20362;-79
2021/04/28 08:24:44;;;;;;;9.38;5.38;;;;;;;19.64;40.57;99808.34;5165626;28;20300;-78
2021/04/28 08:27:14;;;;;;;11.37;6.00;;;;;;;20.59;42.89;99800.00;5172627;28;20038;-78
2021/04/28 08:29:44;;;;;;;9.77;6.03;;;;;;;21.18;41.29;99806.97;5174057;28;20687;-78
2021/04/28 08:32:17;;;;;;;9.57;6.07;;;;;;;22.18;40.79;99801.91;5172466;28;20041;-78
2021/04/28 08:34:47;;;;;;;8.65;5.95;;;;;;;21.00;41.12;99812.16;5169405;28;20365;-78
2021/04/28 08:37:18;;;;;;;13.38;6.60;;;;;;;20.05;40.99;99808.34;5171848;28;20136;-78
2021/04/28 08:39:48;;;;;;;11.43;6.50;;;;;;;19.66;40.97;99810.88;5164398;28;20030;-78
2021/04/28 08:42:18;;;;;;;10.30;6.40;;;;;;;20.64;42.98;99803.94;5150996;28;20030;-78
2021/04/28 08:44:49;;;;;;;12.65;6.15;;;;;;;20.77;41.31;99802.75;5171785;28;20027;-78
2021/04/28 08:47:21;;;;;;;11.48;6.53;;;;;;;21.38;40.98;99800.69;5168841;28;20030;-78
2021/04/28 08:49:51;;;;;;;10.40;6.50;;;;;;;21.38;40.20;99800.69;5163079;28;20023;-78
2021/04/28 08:52:22;;;;;;;15.10;6.83;;;;;;;20.41;41.83;99806.94;5156468;28;20072;-78
2021/04/28 08:54:52;;;;;;;8.85;6.30;;;;;;;20.58;42.11;99799.19;5172139;28;20018;-78
2021/04/28 08:57:22;;;;;;;10.35;6.60;;;;;;;21.44;40.93;99794.81;5170829;28;20026;-78
2021/04/28 08:59:53;;;;;;;9.77;6.30;;;;;;;22.76;38.74;99783.72;5171653;28;20766;-78
2021/04/28 09:02:26;;;;;;;9.07;6.32;;;;;;;22.96;39.33;99777.25;5167547;28;20280;-79
2021/04/28 09:05:07;;;;;;;12.43;6.63;;;;;;;21.21;41.72;99788.13;5166963;28;20061;-79
2021/04/28 09:07:39;;;;;;;11.07;7.35;;;;;;;21.94;41.72;99782.97;5168803;28;20037;-78
2021/04/28 09:10:13;;;;;;;11.93;7.80;;;;;;;18.50;44.90;99792.44;5175609;28;20037;-78
2021/04/28 09:13:00;;;;;;;11.63;8.25;;;;;;;18.90;45.24;99784.59;5172586;28;20110;-78
2021/04/28 09:15:39;;;;;;;13.35;8.00;;;;;;;18.51;45.20;99783.53;5171795;28;20488;-78
2021/04/28 09:18:11;;;;;;;13.32;8.85;;;;;;;18.92;46.15;99784.50;5163849;28;20038;-78
2021/04/28 09:20:52;;;;;;;17.90;8.90;;;;;;;18.84;45.52;99777.19;5203070;23;20037;-79
2021/04/28 09:23:35;;;;;;;16.13;9.07;;;;;;;18.21;46.71;99773.53;5183006;28;20407;-79
2021/04/28 09:26:15;;;;;;;15.43;8.93;;;;;;;17.93;46.80;99773.19;5191448;28;20518;-79
2021/04/28 09:28:52;;;;;;;16.48;9.85;;;;;;;17.72;46.55;99764.28;5191732;28;20112;-81
2021/04/28 09:31:23;;;;;;;15.52;9.07;;;;;;;17.48;48.28;99771.47;5192711;28;20026;-78
2021/04/28 09:33:58;;;;;;;14.57;9.32;;;;;;;17.90;48.72;99754.91;5192632;28;20107;-79
2021/04/28 09:36:33;;;;;;;13.98;9.65;;;;;;;17.74;47.84;99757.06;5185811;28;20025;-79
2021/04/28 09:39:11;;;;;;;15.13;9.02;;;;;;;18.01;50.32;99754.94;5193737;28;20075;-80
2021/04/28 09:41:47;;;;;;;13.55;8.85;;;;;;;17.85;48.82;99762.38;5190433;28;20065;-78
2021/04/28 09:44:20;;;;;;;14.75;8.63;;;;;;;17.98;49.06;99756.00;5192674;28;20045;-79
2021/04/28 09:47:19;;;;;;;16.55;9.30;;;;;;;18.15;49.90;99749.41;5191097;28;20030;-78
2021/04/28 09:50:01;;;;;;;17.17;9.77;;;;;;;17.88;48.59;99752.41;5192243;28;20038;-79
2021/04/28 09:52:33;;;;;;;16.67;9.32;;;;;;;18.01;50.11;99734.59;5189314;28;20487;-79
2021/04/28 09:55:10;;;;;;;15.07;8.90;;;;;;;17.88;49.29;99741.84;5189213;28;20030;-79
2021/04/28 09:57:46;;;;;;;17.25;9.68;;;;;;;17.88;48.45;99738.34;5189814;28;20022;-79
2021/04/28 10:00:27;;;;;;;15.65;9.43;;;;;;;17.86;48.49;99732.34;5191494;28;20030;-79
2021/04/28 10:03:02;;;;;;;18.80;9.73;;;;;;;17.88;48.58;99723.34;5190157;28;20025;-79
2021/04/28 10:05:36;;;;;;;13.95;8.57;;;;;;;17.92;48.65;99731.84;5193329;28;20040;-79
2021/04/28 10:08:20;;;;;;;13.60;8.52;;;;;;;17.72;48.93;99722.84;5190166;28;20550;-79
2021/04/28 10:10:52;;;;;;;17.75;8.52;;;;;;;17.59;47.79;99722.13;5191859;28;20063;-78
2021/04/28 10:13:23;;;;;;;15.70;8.70;;;;;;;17.02;50.21;99721.25;5188626;28;20021;-79
2021/04/28 10:15:53;;;;;;;16.67;9.13;;;;;;;17.43;48.13;99726.03;5187841;28;20025;-80
2021/04/28 10:18:28;;;;;;;15.43;8.63;;;;;;;17.66;50.40;99723.31;5189447;28;20108;-79
2021/04/28 10:21:00;;;;;;;14.80;9.20;;;;;;;17.49;49.15;99726.41;5192753;28;20029;-78
2021/04/28 10:23:32;;;;;;;13.05;8.13;;;;;;;17.95;49.00;99713.09;5186138;28;20479;-79
2021/04/28 10:26:02;;;;;;;14.85;7.97;;;;;;;17.84;49.78;99718.41;5188984;28;20026;-78
2021/04/28 10:28:33;;;;;;;14.07;7.93;;;;;;;17.94;49.89;99712.25;5189529;28;20387;-77
2021/04/28 10:31:04;;;;;;;15.63;8.75;;;;;;;17.42;49.15;99722.56;5189079;28;20615;-78
2021/04/28 10:33:38;;;;;;;19.35;9.65;;;;;;;17.46;50.67;99710.81;5187855;28;20056;-78
2021/04/28 10:36:08;;;;;;;17.08;9.45;;;;;;;17.73;48.29;99705.16;5191702;28;20056;-78
2021/04/28 10:38:39;;;;;;;15.63;8.90;;;;;;;17.64;48.98;99708.56;5185339;28;20503;-78
2021/04/28 10:41:42;;;;;;;15.02;9.15;;;;;;;17.44;48.86;99698.66;5186030;28;20037;-80
2021/04/28 10:44:31;;;;;;;15.35;9.35;;;;;;;17.68;48.03;99700.25;5187313;28;20030;-79
2021/04/28 10:47:14;;;;;;;19.45;9.30;;;;;;;17.76;48.72;99704.91;5188143;28;20040;-79
2021/04/28 10:50:22;;;;;;;19.85;9.52;;;;;;;17.60;51.54;99684.16;5190425;28;20060;-79
2021/04/28 10:52:58;;;;;;;16.33;9.32;;;;;;;17.86;50.85;99684.75;5190872;28;20026;-78
2021/04/28 10:55:50;;;;;;;19.50;9.80;;;;;;;17.97;47.75;99671.53;5187528;28;20125;-78
2021/04/28 10:58:27;;;;;;;17.67;9.23;;;;;;;17.97;47.86;99676.81;5190618;28;20281;-78
2021/04/28 11:00:58;;;;;;;18.85;8.85;;;;;;;18.15;48.90;99672.69;5188240;28;20442;-78
2021/04/28 11:03:29;;;;;;;18.13;9.23;;;;;;;17.93;49.35;99678.00;5191954;28;20033;-79
2021/04/28 11:06:21;;;;;;;18.13;10.32;;;;;;;17.55;49.25;99675.75;5191660;28;20460;-79
2021/04/28 11:08:54;;;;;;;18.45;10.13;;;;;;;16.94;48.89;99676.09;5191032;28;20044;-79
2021/04/28 11:11:35;;;;;;;15.93;9.57;;;;;;;16.94;48.72;99672.63;5187795;28;20079;-78
2021/04/28 11:14:08;;;;;;;20.20;9.73;;;;;;;17.16;48.62;99662.94;5188114;28;20085;-78
2021/04/28 11:16:59;;;;;;;16.33;9.50;;;;;;;17.34;50.02;99658.91;5192699;28;20064;-77
2021/04/28 11:19:38;;;;;;;16.30;8.77;;;;;;;17.79;49.62;99662.41;5193144;28;20112;-78
2021/04/28 11:22:28;;;;;;;15.82;8.77;;;;;;;17.88;48.58;99659.88;5193040;28;20254;-77
2021/04/28 11:25:02;;;;;;;13.95;8.48;;;;;;;18.16;49.30;99655.84;5193154;28;20092;-78
2021/04/28 11:27:52;;;;;;;17.63;8.52;;;;;;;18.07;47.68;99662.72;5196195;28;20018;-78
2021/04/28 11:30:44;;;;;;;15.70;8.73;;;;;;;17.91;48.98;99643.75;5194020;28;20040;-77
2021/04/28 11:33:20;;;;;;;16.85;9.20;;;;;;;17.74;48.12;99653.97;5187942;28;20029;-79
2021/04/28 11:35:54;;;;;;;19.75;9.90;;;;;;;17.21;48.66;99659.94;5194256;28;20026;-78
2021/04/28 11:38:26;;;;;;;16.73;9.68;;;;;;;17.36;48.17;99653.53;5193443;28;20034;-78
2021/04/28 11:41:06;;;;;;;15.80;10.00;;;;;;;17.77;48.96;99649.31;5194387;28;20021;-78
2021/04/28 11:43:47;;;;;;;17.02;10.02;;;;;;;17.54;48.86;99647.66;5186922;28;20453;-78
2021/04/28 11:46:20;;;;;;;18.05;9.70;;;;;;;17.93;49.17;99633.03;5191776;28;20038;-78
2021/04/28 11:48:53;;;;;;;17.40;9.30;;;;;;;17.84;50.47;99639.09;5197846;28;20095;-78
2021/04/28 11:51:29;;;;;;;20.13;8.30;;;;;;;18.26;48.82;99635.59;5190628;28;20033;-80
2021/04/28 11:54:03;;;;;;;16.38;8.30;;;;;;;18.15;49.18;99636.47;5193981;28;20026;-79
2021/04/28 11:56:47;;;;;;;18.40;9.02;;;;;;;17.98;47.44;99633.53;5198071;28;20043;-80
2021/04/28 11:59:19;;;;;;;16.15;8.52;;;;;;;17.99;47.47;99637.88;5194788;28;20392;-79